Time;durP1;ratioP1;P1;durP2;ratioP2;P2;SDS_P1;SDS_P2;PMS_P1;PMS_P2;Temp;Humidity;BMP_temperature;BMP_pressure;BME280_temperature;BME280_humidity;BME280_pressure;Samples;Min_cycle;Max_cycle;Signal;HPM_P1;HPM_P2
2023/05/31 00:01:43;;;;;;;7.82;1.77;;;;;;;;;;5018096;28;20034;-65
2023/05/31 00:04:10;;;;;;;5.60;1.83;;;;;;;;;;5017543;28;20038;-67
2023/05/31 00:06:37;;;;;;;6.25;1.60;;;;;;;;;;5017718;28;20060;-66
2023/05/31 00:09:03;;;;;;;5.63;1.50;;;;;;;;;;5019028;28;20048;-66
2023/05/31 00:11:30;;;;;;;3.83;1.40;;;;;;;;;;5048791;28;20047;-66
2023/05/31 00:13:57;;;;;;;6.65;1.75;;;;;;;;;;5017959;28;20798;-66
2023/05/31 00:16:24;;;;;;;6.35;1.63;;;;;;;;;;5014708;28;20122;-66
2023/05/31 00:18:50;;;;;;;5.90;1.70;;;;;;;;;;5015741;28;20053;-65
2023/05/31 00:21:17;;;;;;;5.40;1.42;;;;;;;;;;5016648;28;20044;-69
2023/05/31 00:23:43;;;;;;;7.70;2.20;;;;;;;;;;5014550;28;20048;-66
2023/05/31 00:26:10;;;;;;;7.30;1.77;;;;;;;;;;5017084;28;20473;-66
2023/05/31 00:28:37;;;;;;;5.30;1.65;;;;;;;;;;5036942;28;20888;-66
2023/05/31 00:31:03;;;;;;;4.40;1.38;;;;;;;;;;5017023;28;20421;-65
2023/05/31 00:33:30;;;;;;;5.75;1.65;;;;;;;;;;5014636;28;20030;-66
2023/05/31 00:35:57;;;;;;;5.28;1.60;;;;;;;;;;5015417;28;20096;-66
2023/05/31 00:38:23;;;;;;;4.85;1.90;;;;;;;;;;5013889;28;20045;-65
2023/05/31 00:40:50;;;;;;;9.60;1.80;;;;;;;;;;5052155;28;20060;-66
2023/05/31 00:43:17;;;;;;;7.32;1.83;;;;;;;;;;5052513;28;20755;-66
2023/05/31 00:45:43;;;;;;;5.10;1.50;;;;;;;;;;5052770;28;20127;-65
2023/05/31 00:48:10;;;;;;;4.20;1.50;;;;;;;;;;5052925;28;20123;-67
2023/05/31 00:50:37;;;;;;;5.03;1.90;;;;;;;;;;5052748;28;20126;-66
2023/05/31 00:53:04;;;;;;;5.65;1.65;;;;;;;;;;5036052;28;20604;-66
2023/05/31 00:55:32;;;;;;;5.50;1.65;;;;;;;;;;5050533;28;20083;-67
2023/05/31 00:57:59;;;;;;;15.63;2.08;;;;;;;;;;5052584;28;20129;-65
2023/05/31 01:00:26;;;;;;;7.93;1.80;;;;;;;;;;5050185;28;20184;-66
2023/05/31 01:02:53;;;;;;;4.50;1.58;;;;;;;;;;5052629;28;20471;-66
2023/05/31 01:05:19;;;;;;;4.88;1.40;;;;;;;;;;5050632;28;20044;-66
2023/05/31 01:07:46;;;;;;;5.00;1.50;;;;;;;;;;5049922;28;20033;-67
2023/05/31 01:10:13;;;;;;;7.57;1.88;;;;;;;;;;5045942;28;20159;-65
2023/05/31 01:12:51;;;;;;;6.13;2.03;;;;;;;;;;5048724;28;20109;-66
2023/05/31 01:15:21;;;;;;;5.85;1.70;;;;;;;;;;5049144;28;20132;-66
2023/05/31 01:18:09;;;;;;;5.55;1.48;;;;;;;;;;5045325;28;20037;-67
2023/05/31 01:20:36;;;;;;;7.53;2.00;;;;;;;;;;5025704;28;20362;-66
2023/05/31 01:23:23;;;;;;;5.03;1.85;;;;;;;;;;5017693;28;20041;-66
2023/05/31 01:25:49;;;;;;;8.18;2.00;;;;;;;;;;5013453;28;20053;-68
2023/05/31 01:28:16;;;;;;;4.85;1.42;;;;;;;;;;5014590;28;20743;-67
2023/05/31 01:30:44;;;;;;;7.07;1.70;;;;;;;;;;5014764;28;20042;-68
2023/05/31 01:33:11;;;;;;;5.07;2.00;;;;;;;;;;5015359;28;20048;-66
2023/05/31 01:35:37;;;;;;;4.65;1.58;;;;;;;;;;5014120;28;20069;-67
2023/05/31 01:38:04;;;;;;;5.85;1.50;;;;;;;;;;5013661;28;20095;-66
2023/05/31 01:40:31;;;;;;;4.80;1.48;;;;;;;;;;5018471;28;20033;-68
2023/05/31 01:42:58;;;;;;;5.85;2.00;;;;;;;;;;5016670;28;20034;-67
2023/05/31 01:45:27;;;;;;;8.52;2.08;;;;;;;;;;5018195;28;20049;-66
2023/05/31 01:47:55;;;;;;;4.65;1.83;;;;;;;;;;5025722;28;20116;-67
2023/05/31 01:50:22;;;;;;;10.25;2.42;;;;;;;;;;5025788;28;20077;-68
2023/05/31 01:52:49;;;;;;;6.28;1.85;;;;;;;;;;5024756;28;20513;-68
2023/05/31 01:55:16;;;;;;;4.80;1.40;;;;;;;;;;5023685;28;20034;-65
2023/05/31 01:57:43;;;;;;;6.18;1.80;;;;;;;;;;5023370;28;20043;-66
2023/05/31 02:00:12;;;;;;;6.70;1.77;;;;;;;;;;5022804;28;20075;-66
2023/05/31 02:02:45;;;;;;;6.82;2.00;;;;;;;;;;5019657;28;20045;-65
2023/05/31 02:05:13;;;;;;;6.97;1.90;;;;;;;;;;5049529;28;20477;-67
2023/05/31 02:07:40;;;;;;;5.05;1.70;;;;;;;;;;5016046;28;20120;-67
2023/05/31 02:10:07;;;;;;;6.03;2.38;;;;;;;;;;5015926;28;20091;-66
2023/05/31 02:12:34;;;;;;;5.75;2.00;;;;;;;;;;5017163;28;20086;-66
2023/05/31 02:15:01;;;;;;;5.15;1.83;;;;;;;;;;5015110;28;20070;-67
2023/05/31 02:17:28;;;;;;;7.35;1.92;;;;;;;;;;5045399;28;21864;-67
2023/05/31 02:19:56;;;;;;;5.82;1.73;;;;;;;;;;5014780;28;20051;-70
2023/05/31 02:22:22;;;;;;;6.00;2.00;;;;;;;;;;5013066;28;20525;-64
2023/05/31 02:24:49;;;;;;;10.77;2.40;;;;;;;;;;5041898;28;20119;-67
2023/05/31 02:27:15;;;;;;;5.18;1.73;;;;;;;;;;5028580;28;20042;-67
2023/05/31 02:29:42;;;;;;;8.02;1.95;;;;;;;;;;5022042;28;20072;-68
2023/05/31 02:32:09;;;;;;;9.88;2.00;;;;;;;;;;5021472;28;20069;-68
2023/05/31 02:34:36;;;;;;;7.55;1.90;;;;;;;;;;5014484;28;20033;-66
2023/05/31 02:37:03;;;;;;;8.02;1.95;;;;;;;;;;5013478;28;20065;-67
2023/05/31 02:39:29;;;;;;;6.82;1.83;;;;;;;;;;5014568;28;20041;-65
2023/05/31 02:41:56;;;;;;;5.25;2.05;;;;;;;;;;5015986;28;20049;-66
2023/05/31 02:44:23;;;;;;;6.57;2.05;;;;;;;;;;5046362;28;20046;-66
2023/05/31 02:46:49;;;;;;;6.68;2.00;;;;;;;;;;5012245;28;20497;-66
2023/05/31 02:49:16;;;;;;;8.50;2.28;;;;;;;;;;5011885;28;20053;-68
2023/05/31 02:51:43;;;;;;;4.85;1.98;;;;;;;;;;5024816;28;20147;-67
2023/05/31 02:54:09;;;;;;;6.00;2.00;;;;;;;;;;5034179;28;20048;-66
2023/05/31 02:56:36;;;;;;;5.75;1.80;;;;;;;;;;5011128;28;20052;-68
2023/05/31 02:59:02;;;;;;;8.02;2.13;;;;;;;;;;5046747;28;20092;-67
2023/05/31 03:01:29;;;;;;;5.00;1.98;;;;;;;;;;5006248;28;20041;-67
2023/05/31 03:03:56;;;;;;;6.00;1.80;;;;;;;;;;5042583;28;20406;-67
2023/05/31 03:06:23;;;;;;;5.00;1.80;;;;;;;;;;5013004;28;20053;-66
2023/05/31 03:08:50;;;;;;;7.13;2.13;;;;;;;;;;5016163;28;20084;-67
2023/05/31 03:11:17;;;;;;;6.80;1.67;;;;;;;;;;5036792;28;20048;-66
2023/05/31 03:13:44;;;;;;;4.97;1.90;;;;;;;;;;5034594;28;20053;-65
2023/05/31 03:16:11;;;;;;;9.45;2.00;;;;;;;;;;5017479;28;20317;-66
2023/05/31 03:18:37;;;;;;;8.35;2.30;;;;;;;;;;5018344;28;20067;-66
2023/05/31 03:21:04;;;;;;;10.60;2.22;;;;;;;;;;5015438;28;20137;-66
2023/05/31 03:23:31;;;;;;;7.47;1.70;;;;;;;;;;5018658;28;20110;-64
2023/05/31 03:25:57;;;;;;;11.45;2.40;;;;;;;;;;5017825;28;20052;-64
2023/05/31 03:28:24;;;;;;;7.78;1.88;;;;;;;;;;5048222;28;20784;-66
2023/05/31 03:30:51;;;;;;;7.10;2.10;;;;;;;;;;5016114;28;20060;-64
2023/05/31 03:33:17;;;;;;;10.05;2.13;;;;;;;;;;5018976;28;20041;-65
2023/05/31 03:35:44;;;;;;;7.50;2.10;;;;;;;;;;5016117;28;20052;-66
2023/05/31 03:38:11;;;;;;;7.82;1.83;;;;;;;;;;5049923;28;20041;-64
2023/05/31 03:40:37;;;;;;;7.90;1.85;;;;;;;;;;5018056;28;20037;-64
2023/05/31 03:43:04;;;;;;;6.07;1.80;;;;;;;;;;5018562;28;20046;-63
2023/05/31 03:45:31;;;;;;;5.38;1.60;;;;;;;;;;5017702;28;20056;-65
2023/05/31 03:47:57;;;;;;;5.22;1.60;;;;;;;;;;5017847;28;20044;-66
2023/05/31 03:50:24;;;;;;;5.03;1.58;;;;;;;;;;5017753;28;20053;-66
2023/05/31 03:52:51;;;;;;;4.82;1.40;;;;;;;;;;5017460;28;20041;-67
2023/05/31 03:55:17;;;;;;;5.22;1.98;;;;;;;;;;5047172;28;20054;-65
2023/05/31 03:57:44;;;;;;;4.68;1.33;;;;;;;;;;5015445;28;20033;-66
2023/05/31 04:00:11;;;;;;;6.10;1.67;;;;;;;;;;5017789;28;20041;-66
2023/05/31 04:02:38;;;;;;;4.88;1.77;;;;;;;;;;5047412;28;20188;-65
2023/05/31 04:05:05;;;;;;;4.93;1.58;;;;;;;;;;5047977;28;20399;-66
2023/05/31 04:07:32;;;;;;;7.05;1.65;;;;;;;;;;5017269;28;20069;-66
2023/05/31 04:09:59;;;;;;;49.13;4.18;;;;;;;;;;5018013;28;20033;-65
2023/05/31 04:12:26;;;;;;;10.63;3.70;;;;;;;;;;5014169;28;20366;-65
2023/05/31 04:14:52;;;;;;;19.98;3.08;;;;;;;;;;5015398;28;20087;-66
2023/05/31 04:17:19;;;;;;;20.73;2.78;;;;;;;;;;5015427;28;20127;-67
2023/05/31 04:19:46;;;;;;;20.80;2.58;;;;;;;;;;5047650;28;20492;-68
2023/05/31 04:22:13;;;;;;;12.20;2.75;;;;;;;;;;5015809;28;20739;-66
2023/05/31 04:24:40;;;;;;;9.95;2.33;;;;;;;;;;5017471;28;20087;-67
2023/05/31 04:27:07;;;;;;;4.40;1.67;;;;;;;;;;5017466;28;20042;-66
2023/05/31 04:29:34;;;;;;;7.53;2.00;;;;;;;;;;5016249;28;20029;-69
2023/05/31 04:32:03;;;;;;;6.65;2.30;;;;;;;;;;5016089;28;20045;-68
2023/05/31 04:34:30;;;;;;;7.45;2.70;;;;;;;;;;5015488;28;20380;-66
2023/05/31 04:36:57;;;;;;;5.65;1.88;;;;;;;;;;5043130;28;20041;-66
2023/05/31 04:39:46;;;;;;;6.63;1.85;;;;;;;;;;5008089;28;20046;-68
2023/05/31 04:42:14;;;;;;;5.25;2.00;;;;;;;;;;5000058;28;20058;-67
2023/05/31 04:44:42;;;;;;;6.60;1.98;;;;;;;;;;5007593;28;20044;-67
2023/05/31 04:47:08;;;;;;;11.73;2.88;;;;;;;;;;5016820;28;20117;-68
2023/05/31 04:49:35;;;;;;;7.40;2.10;;;;;;;;;;5015813;28;20133;-68
2023/05/31 04:52:02;;;;;;;10.80;3.15;;;;;;;;;;4999578;28;20041;-67
2023/05/31 04:54:28;;;;;;;10.43;2.97;;;;;;;;;;4998865;28;20092;-67
2023/05/31 04:56:55;;;;;;;6.97;2.30;;;;;;;;;;4995996;28;20048;-66
2023/05/31 04:59:22;;;;;;;5.32;1.92;;;;;;;;;;5003810;28;20158;-65
2023/05/31 05:01:50;;;;;;;4.55;1.77;;;;;;;;;;5021203;28;20037;-66
2023/05/31 05:04:17;;;;;;;8.20;2.03;;;;;;;;;;5003453;28;20049;-67
2023/05/31 05:06:43;;;;;;;7.20;2.17;;;;;;;;;;5000250;28;20644;-67
2023/05/31 05:09:10;;;;;;;7.03;2.00;;;;;;;;;;5002312;28;20034;-67
2023/05/31 05:11:37;;;;;;;8.63;1.85;;;;;;;;;;5000666;28;20128;-67
2023/05/31 05:14:03;;;;;;;6.68;2.30;;;;;;;;;;5015688;28;20038;-66
2023/05/31 05:16:30;;;;;;;6.40;1.73;;;;;;;;;;5003719;28;21783;-65
2023/05/31 05:18:57;;;;;;;7.55;1.92;;;;;;;;;;5015247;28;20049;-67
2023/05/31 05:21:24;;;;;;;7.40;1.80;;;;;;;;;;5014458;28;20697;-66
2023/05/31 05:23:50;;;;;;;6.95;2.10;;;;;;;;;;5047679;28;20403;-67
2023/05/31 05:26:17;;;;;;;5.93;2.05;;;;;;;;;;5012402;28;20049;-67
2023/05/31 05:28:43;;;;;;;5.57;2.28;;;;;;;;;;5045098;28;20048;-67
2023/05/31 05:31:10;;;;;;;5.47;2.22;;;;;;;;;;5015262;28;21662;-66
2023/05/31 05:33:37;;;;;;;8.18;1.85;;;;;;;;;;5010837;28;20133;-65
2023/05/31 05:36:03;;;;;;;5.82;2.38;;;;;;;;;;5050035;28;20028;-65
2023/05/31 05:38:50;;;;;;;9.75;2.40;;;;;;;;;;5037850;28;20481;-67
2023/05/31 05:41:17;;;;;;;8.35;2.50;;;;;;;;;;5038777;28;20101;-66
2023/05/31 05:43:44;;;;;;;10.88;2.25;;;;;;;;;;5036913;28;20127;-66
2023/05/31 05:46:10;;;;;;;7.55;2.40;;;;;;;;;;5038343;28;20580;-65
2023/05/31 05:48:37;;;;;;;5.38;2.10;;;;;;;;;;5039162;28;20028;-66
2023/05/31 05:51:04;;;;;;;8.00;2.55;;;;;;;;;;5040910;28;20116;-65
2023/05/31 05:53:31;;;;;;;8.70;2.63;;;;;;;;;;5037632;28;20036;-66
2023/05/31 05:55:58;;;;;;;6.97;2.13;;;;;;;;;;5036758;28;20079;-66
2023/05/31 05:58:25;;;;;;;8.68;2.72;;;;;;;;;;5039573;28;20041;-67
2023/05/31 06:00:51;;;;;;;10.35;2.60;;;;;;;;;;5035446;28;20048;-66
2023/05/31 06:03:19;;;;;;;8.57;2.50;;;;;;;;;;4998227;28;20172;-66
2023/05/31 06:05:45;;;;;;;7.38;2.47;;;;;;;;;;4987503;28;20049;-65
2023/05/31 06:08:12;;;;;;;9.02;2.88;;;;;;;;;;4929209;28;20070;-66
2023/05/31 06:10:40;;;;;;;8.18;2.72;;;;;;;;;;4972537;28;20035;-66
2023/05/31 06:13:07;;;;;;;8.27;2.58;;;;;;;;;;4952581;28;20047;-66
2023/05/31 06:15:34;;;;;;;8.15;2.78;;;;;;;;;;4957603;28;20562;-66
2023/05/31 06:18:01;;;;;;;11.18;2.83;;;;;;;;;;4968661;28;20090;-67
2023/05/31 06:20:27;;;;;;;8.25;2.78;;;;;;;;;;4966447;28;20043;-66
2023/05/31 06:22:54;;;;;;;10.32;2.78;;;;;;;;;;4968415;28;20080;-66
2023/05/31 06:25:21;;;;;;;9.38;2.88;;;;;;;;;;4969898;28;20038;-66
2023/05/31 06:27:48;;;;;;;11.20;2.63;;;;;;;;;;4956142;28;20053;-66
2023/05/31 06:30:36;;;;;;;6.72;2.53;;;;;;;;;;4918541;28;20071;-67
2023/05/31 06:33:02;;;;;;;6.60;2.30;;;;;;;;;;4949688;28;20050;-66
2023/05/31 06:35:32;;;;;;;8.18;2.63;;;;;;;;;;4962070;28;20097;-65
2023/05/31 06:37:59;;;;;;;12.70;2.78;;;;;;;;;;4965292;28;20086;-65
2023/05/31 06:40:25;;;;;;;9.88;2.25;;;;;;;;;;4965997;28;20054;-65
2023/05/31 06:42:52;;;;;;;11.88;2.35;;;;;;;;;;4964321;28;20464;-65
2023/05/31 06:45:18;;;;;;;10.07;2.55;;;;;;;;;;4967236;28;20307;-65
2023/05/31 06:47:45;;;;;;;7.35;2.40;;;;;;;;;;4968875;28;20094;-65
2023/05/31 06:50:12;;;;;;;13.30;2.45;;;;;;;;;;4968114;28;20054;-66
2023/05/31 06:52:40;;;;;;;11.13;2.38;;;;;;;;;;4967398;28;20043;-67
2023/05/31 06:55:07;;;;;;;7.45;2.50;;;;;;;;;;4972627;28;20052;-67
2023/05/31 06:57:33;;;;;;;8.20;2.15;;;;;;;;;;4970883;28;20034;-65
2023/05/31 07:00:00;;;;;;;6.97;2.40;;;;;;;;;;4970773;28;20048;-64
2023/05/31 07:02:27;;;;;;;6.38;2.38;;;;;;;;;;4966979;28;20492;-65
2023/05/31 07:04:53;;;;;;;7.10;2.10;;;;;;;;;;4968994;28;20047;-64
2023/05/31 07:07:20;;;;;;;6.65;2.10;;;;;;;;;;4976950;28;20064;-65
2023/05/31 07:09:47;;;;;;;7.78;2.55;;;;;;;;;;5036504;28;20055;-64
2023/05/31 07:12:13;;;;;;;6.90;2.17;;;;;;;;;;5018317;28;20033;-64
2023/05/31 07:14:40;;;;;;;5.78;2.22;;;;;;;;;;5033127;28;22317;-64
2023/05/31 07:17:07;;;;;;;7.63;2.70;;;;;;;;;;5037570;28;20146;-65
2023/05/31 07:19:43;;;;;;;6.97;2.10;;;;;;;;;;5035126;28;20514;-65
2023/05/31 07:22:10;;;;;;;8.95;2.47;;;;;;;;;;5037746;28;20036;-65
2023/05/31 07:24:36;;;;;;;7.00;2.30;;;;;;;;;;5033943;28;20124;-66
2023/05/31 07:27:03;;;;;;;5.85;2.35;;;;;;;;;;5035157;28;20049;-66
2023/05/31 07:29:29;;;;;;;7.00;2.60;;;;;;;;;;5035573;28;20418;-66
2023/05/31 07:31:56;;;;;;;5.32;1.95;;;;;;;;;;5035827;28;20042;-65
2023/05/31 07:34:22;;;;;;;5.38;2.35;;;;;;;;;;5029831;28;21229;-67
2023/05/31 07:36:49;;;;;;;6.18;2.17;;;;;;;;;;5017017;28;20034;-66
2023/05/31 07:39:16;;;;;;;7.47;2.67;;;;;;;;;;5049442;28;20040;-65
2023/05/31 07:41:45;;;;;;;6.38;2.42;;;;;;;;;;5018203;28;20052;-66
2023/05/31 07:44:12;;;;;;;12.60;2.67;;;;;;;;;;5017640;28;20041;-66
2023/05/31 07:46:39;;;;;;;6.80;3.03;;;;;;;;;;5017684;28;20084;-66
2023/05/31 07:49:05;;;;;;;11.65;3.20;;;;;;;;;;5017350;28;20506;-67
2023/05/31 07:51:32;;;;;;;9.82;3.53;;;;;;;;;;5051525;28;20474;-66
2023/05/31 07:53:59;;;;;;;9.40;3.28;;;;;;;;;;5019972;28;20129;-67
2023/05/31 07:56:26;;;;;;;10.52;3.90;;;;;;;;;;5023420;28;20037;-65
2023/05/31 07:58:52;;;;;;;12.02;4.38;;;;;;;;;;5045393;28;20108;-65
2023/05/31 08:01:19;;;;;;;9.15;4.30;;;;;;;;;;5057071;28;20049;-67
2023/05/31 08:03:46;;;;;;;8.38;4.13;;;;;;;;;;5035836;28;20041;-67
2023/05/31 08:06:12;;;;;;;9.25;4.40;;;;;;;;;;5060881;28;20053;-66
2023/05/31 08:08:41;;;;;;;12.20;4.78;;;;;;;;;;5043483;28;20053;-67
2023/05/31 08:11:07;;;;;;;11.40;4.45;;;;;;;;;;5022388;28;20041;-65
2023/05/31 08:13:34;;;;;;;12.63;4.47;;;;;;;;;;5021781;28;20036;-65
2023/05/31 08:16:01;;;;;;;9.77;3.75;;;;;;;;;;5020410;28;20133;-65
2023/05/31 08:18:27;;;;;;;11.10;5.28;;;;;;;;;;5020112;28;20073;-67
2023/05/31 08:20:54;;;;;;;8.32;4.20;;;;;;;;;;5018290;28;20459;-65
2023/05/31 08:23:21;;;;;;;11.75;4.70;;;;;;;;;;5016948;28;20036;-65
2023/05/31 08:25:48;;;;;;;8.38;4.53;;;;;;;;;;5020269;28;20443;-66
2023/05/31 08:28:15;;;;;;;14.20;4.88;;;;;;;;;;5016967;28;20046;-67
2023/05/31 08:30:42;;;;;;;11.68;4.40;;;;;;;;;;5016204;28;20037;-67
2023/05/31 08:33:08;;;;;;;10.07;4.53;;;;;;;;;;5049396;28;20056;-67
2023/05/31 08:35:35;;;;;;;9.95;4.55;;;;;;;;;;5011013;28;20110;-67
2023/05/31 08:38:02;;;;;;;11.70;4.45;;;;;;;;;;5017873;28;20165;-66
2023/05/31 08:40:28;;;;;;;10.00;4.22;;;;;;;;;;5047212;28;20069;-66
2023/05/31 08:43:04;;;;;;;9.38;4.30;;;;;;;;;;5044524;28;20038;-66
2023/05/31 08:45:31;;;;;;;9.15;4.47;;;;;;;;;;5014499;28;20041;-67
2023/05/31 08:47:57;;;;;;;9.50;4.25;;;;;;;;;;5011016;28;20136;-65
2023/05/31 08:50:26;;;;;;;9.57;4.00;;;;;;;;;;5027945;28;20045;-65
2023/05/31 08:52:54;;;;;;;8.43;4.05;;;;;;;;;;5016059;28;20041;-67
2023/05/31 08:55:21;;;;;;;10.05;4.65;;;;;;;;;;5044467;28;20605;-66
2023/05/31 08:57:48;;;;;;;10.43;4.40;;;;;;;;;;5028026;28;20410;-65
2023/05/31 09:00:15;;;;;;;7.97;3.83;;;;;;;;;;5049747;28;20038;-65
2023/05/31 09:02:42;;;;;;;7.88;3.72;;;;;;;;;;5017847;28;20033;-66
2023/05/31 09:05:11;;;;;;;10.48;4.25;;;;;;;;;;5017980;28;20126;-66
2023/05/31 09:07:38;;;;;;;7.80;3.72;;;;;;;;;;5014834;28;20064;-64
2023/05/31 09:10:07;;;;;;;11.05;5.20;;;;;;;;;;5015873;28;22064;-66
2023/05/31 09:12:34;;;;;;;11.98;4.85;;;;;;;;;;5016391;28;20845;-66
2023/05/31 09:15:00;;;;;;;8.25;4.90;;;;;;;;;;5016314;28;20346;-65
2023/05/31 09:17:27;;;;;;;8.15;4.60;;;;;;;;;;5013224;28;20521;-66
2023/05/31 09:19:55;;;;;;;13.35;5.32;;;;;;;;;;5019598;28;20524;-65
2023/05/31 09:22:22;;;;;;;7.50;3.47;;;;;;;;;;5015526;28;20495;-65
2023/05/31 09:24:56;;;;;;;9.05;4.97;;;;;;;;;;5028369;28;20041;-66
2023/05/31 09:27:23;;;;;;;9.35;4.85;;;;;;;;;;5013747;28;20104;-66
2023/05/31 09:29:54;;;;;;;8.77;4.85;;;;;;;;;;5014417;28;20056;-68
2023/05/31 09:32:20;;;;;;;10.43;4.53;;;;;;;;;;5011656;28;20124;-67
2023/05/31 09:34:47;;;;;;;8.75;4.57;;;;;;;;;;5012240;28;20036;-65
2023/05/31 09:37:23;;;;;;;9.43;4.78;;;;;;;;;;5014029;28;20365;-65
2023/05/31 09:39:56;;;;;;;10.77;4.80;;;;;;;;;;5014458;28;20063;-65
2023/05/31 09:42:26;;;;;;;8.50;4.68;;;;;;;;;;5014098;28;20042;-64
2023/05/31 09:44:52;;;;;;;8.40;4.25;;;;;;;;;;5015354;28;20106;-65
2023/05/31 09:47:25;;;;;;;10.25;4.63;;;;;;;;;;5013152;28;20069;-66
2023/05/31 09:49:55;;;;;;;7.82;4.32;;;;;;;;;;5013581;28;20050;-66
2023/05/31 09:52:31;;;;;;;8.98;4.68;;;;;;;;;;5012969;28;20671;-65
2023/05/31 09:54:58;;;;;;;8.88;4.47;;;;;;;;;;5014101;28;20048;-65
2023/05/31 09:57:31;;;;;;;9.13;4.65;;;;;;;;;;5012387;28;20033;-65
2023/05/31 09:59:58;;;;;;;;;;;;;;;;;;5015729;28;20072;-65
2023/05/31 10:02:25;;;;;;;8.23;4.20;;;;;;;;;;5013354;28;20282;-64
2023/05/31 10:04:52;;;;;;;9.68;4.85;;;;;;;;;;5012904;28;20790;-62
2023/05/31 10:07:19;;;;;;;12.23;4.82;;;;;;;;;;5013783;28;20045;-64
2023/05/31 10:09:46;;;;;;;12.90;4.85;;;;;;;;;;5013580;28;20040;-65
2023/05/31 10:12:14;;;;;;;9.35;4.80;;;;;;;;;;5016339;28;20065;-64
2023/05/31 10:14:43;;;;;;;9.93;4.90;;;;;;;;;;5015638;28;20129;-64
2023/05/31 10:17:12;;;;;;;11.95;4.95;;;;;;;;;;5048119;28;20029;-64
2023/05/31 10:19:42;;;;;;;10.18;4.20;;;;;;;;;;5014651;28;20095;-64
2023/05/31 10:22:09;;;;;;;10.32;4.75;;;;;;;;;;5016985;28;20069;-65
2023/05/31 10:24:45;;;;;;;7.93;4.30;;;;;;;;;;5013804;28;20401;-65
2023/05/31 10:27:19;;;;;;;9.93;4.20;;;;;;;;;;5013737;28;20402;-65
2023/05/31 10:29:50;;;;;;;7.88;3.95;;;;;;;;;;5013171;28;20038;-66
2023/05/31 10:32:27;;;;;;;12.48;4.72;;;;;;;;;;5015027;28;20042;-65
2023/05/31 10:34:54;;;;;;;11.30;4.53;;;;;;;;;;5027629;28;20072;-64
2023/05/31 10:37:21;;;;;;;9.88;5.20;;;;;;;;;;5013615;28;20036;-65
2023/05/31 10:39:56;;;;;;;8.35;4.68;;;;;;;;;;5015987;28;20038;-65
2023/05/31 10:42:41;;;;;;;14.52;5.25;;;;;;;;;;5015020;28;20461;-65
2023/05/31 10:45:15;;;;;;;8.50;4.65;;;;;;;;;;5012619;28;20501;-65
2023/05/31 10:47:45;;;;;;;11.98;4.78;;;;;;;;;;5011685;28;20045;-65
2023/05/31 10:50:18;;;;;;;14.48;5.07;;;;;;;;;;5014653;28;20049;-64
2023/05/31 10:52:46;;;;;;;8.52;4.50;;;;;;;;;;5012372;28;20042;-65
2023/05/31 10:55:16;;;;;;;10.25;4.72;;;;;;;;;;5015782;28;20055;-65
2023/05/31 10:57:42;;;;;;;8.05;4.28;;;;;;;;;;5014047;28;20176;-65
2023/05/31 11:00:11;;;;;;;7.47;4.00;;;;;;;;;;5015529;28;20529;-66
2023/05/31 11:02:49;;;;;;;10.90;4.93;;;;;;;;;;4994396;28;20038;-66
2023/05/31 11:05:20;;;;;;;11.88;4.40;;;;;;;;;;5012842;28;20092;-66
2023/05/31 11:07:47;;;;;;;10.45;4.88;;;;;;;;;;5014298;28;20072;-67
2023/05/31 11:10:34;;;;;;;9.00;4.82;;;;;;;;;;5014510;28;20038;-65
2023/05/31 11:13:05;;;;;;;12.05;4.90;;;;;;;;;;5046472;28;20049;-64
2023/05/31 11:15:45;;;;;;;7.70;3.92;;;;;;;;;;5013725;28;20121;-65
2023/05/31 11:18:21;;;;;;;9.07;5.15;;;;;;;;;;5013084;28;20041;-64
2023/05/31 11:20:48;;;;;;;12.73;5.72;;;;;;;;;;5013597;28;20050;-66
2023/05/31 11:23:18;;;;;;;14.25;5.45;;;;;;;;;;5045221;28;20044;-65
2023/05/31 11:25:46;;;;;;;11.07;5.78;;;;;;;;;;5009393;28;20049;-65
2023/05/31 11:28:17;;;;;;;10.63;5.28;;;;;;;;;;5012557;28;20033;-66
2023/05/31 11:30:46;;;;;;;11.90;5.43;;;;;;;;;;5014057;28;20048;-65
2023/05/31 11:33:15;;;;;;;14.45;5.80;;;;;;;;;;5020447;28;20067;-64
2023/05/31 11:35:42;;;;;;;11.77;6.03;;;;;;;;;;5047925;28;20096;-64
2023/05/31 11:38:09;;;;;;;8.52;5.05;;;;;;;;;;5016222;28;20046;-65
2023/05/31 11:40:37;;;;;;;9.95;5.43;;;;;;;;;;5047716;28;20045;-65
2023/05/31 11:43:05;;;;;;;12.68;5.55;;;;;;;;;;5017283;28;20050;-65
2023/05/31 11:45:33;;;;;;;13.27;6.85;;;;;;;;;;5015798;28;20077;-67
2023/05/31 11:48:11;;;;;;;10.52;5.95;;;;;;;;;;5014969;28;20054;-65
2023/05/31 11:50:38;;;;;;;9.68;5.82;;;;;;;;;;5015266;28;20859;-66
2023/05/31 11:53:05;;;;;;;10.27;5.82;;;;;;;;;;5024402;28;20477;-64
2023/05/31 11:55:35;;;;;;;9.48;5.95;;;;;;;;;;5014030;28;20520;-64
2023/05/31 11:58:02;;;;;;;10.30;5.10;;;;;;;;;;5016754;28;20056;-64
2023/05/31 12:00:29;;;;;;;10.38;5.78;;;;;;;;;;5015227;28;20073;-65
2023/05/31 12:02:56;;;;;;;10.50;5.60;;;;;;;;;;5014332;28;20579;-68
2023/05/31 12:05:23;;;;;;;10.77;6.40;;;;;;;;;;5015853;28;20128;-65
2023/05/31 12:07:53;;;;;;;9.88;6.40;;;;;;;;;;5007566;28;20053;-66
2023/05/31 12:10:20;;;;;;;11.90;6.35;;;;;;;;;;5016248;28;20091;-65
2023/05/31 12:12:47;;;;;;;11.88;6.50;;;;;;;;;;5015523;28;20120;-65
2023/05/31 12:15:15;;;;;;;15.10;6.47;;;;;;;;;;5017409;28;20443;-65
2023/05/31 12:17:42;;;;;;;13.73;6.93;;;;;;;;;;4997405;28;20100;-65
2023/05/31 12:20:11;;;;;;;12.85;6.78;;;;;;;;;;5017697;28;20900;-64
2023/05/31 12:22:37;;;;;;;13.13;6.45;;;;;;;;;;5017413;28;20402;-65
2023/05/31 12:25:04;;;;;;;12.10;6.85;;;;;;;;;;5015005;28;20049;-65
2023/05/31 12:27:32;;;;;;;13.48;6.53;;;;;;;;;;5013917;28;20040;-64
2023/05/31 12:30:02;;;;;;;11.68;6.65;;;;;;;;;;5016428;28;20088;-64
2023/05/31 12:32:28;;;;;;;11.18;6.35;;;;;;;;;;5017367;28;20092;-66
2023/05/31 12:35:12;;;;;;;13.88;7.32;;;;;;;;;;5018227;28;20049;-64
2023/05/31 12:37:39;;;;;;;15.60;7.18;;;;;;;;;;5044890;28;20035;-64
2023/05/31 12:40:10;;;;;;;11.73;6.55;;;;;;;;;;5018626;28;20043;-64
2023/05/31 12:42:37;;;;;;;12.25;7.13;;;;;;;;;;5014631;28;20036;-63
2023/05/31 12:45:04;;;;;;;14.10;6.72;;;;;;;;;;5016972;28;20084;-62
2023/05/31 12:47:31;;;;;;;12.45;6.88;;;;;;;;;;5017028;28;20058;-64
2023/05/31 12:50:07;;;;;;;14.82;7.00;;;;;;;;;;5017277;28;20052;-64
2023/05/31 12:52:38;;;;;;;12.02;6.70;;;;;;;;;;5016502;28;20037;-66
2023/05/31 12:55:06;;;;;;;12.75;7.10;;;;;;;;;;5016523;28;20377;-66
2023/05/31 12:57:33;;;;;;;10.43;6.57;;;;;;;;;;5012324;28;20092;-66
2023/05/31 13:00:09;;;;;;;15.15;6.55;;;;;;;;;;5047630;28;20219;-66
2023/05/31 13:02:36;;;;;;;12.45;5.35;;;;;;;;;;5048671;28;20504;-64
2023/05/31 13:05:03;;;;;;;15.80;7.15;;;;;;;;;;5047566;28;20664;-64
2023/05/31 13:07:29;;;;;;;12.27;7.03;;;;;;;;;;5018585;28;20048;-64
2023/05/31 13:09:56;;;;;;;12.73;7.25;;;;;;;;;;5048179;28;20041;-64
2023/05/31 13:12:23;;;;;;;15.63;7.75;;;;;;;;;;5036331;28;20715;-64
2023/05/31 13:14:51;;;;;;;12.52;7.45;;;;;;;;;;5046660;28;20034;-64
2023/05/31 13:17:18;;;;;;;14.85;8.50;;;;;;;;;;5018626;28;21026;-66
2023/05/31 13:19:46;;;;;;;17.33;9.15;;;;;;;;;;5029105;28;20129;-64
2023/05/31 13:22:15;;;;;;;17.23;8.68;;;;;;;;;;5042934;28;20123;-66
2023/05/31 13:24:41;;;;;;;16.65;9.13;;;;;;;;;;5034841;28;20092;-65
2023/05/31 13:27:08;;;;;;;16.90;9.20;;;;;;;;;;5015850;28;20585;-66
2023/05/31 13:29:35;;;;;;;18.27;9.85;;;;;;;;;;5046293;28;20073;-66
2023/05/31 13:32:02;;;;;;;16.15;9.32;;;;;;;;;;5013045;28;20163;-66
2023/05/31 13:34:28;;;;;;;18.63;11.18;;;;;;;;;;5015242;28;20040;-65
2023/05/31 13:36:55;;;;;;;17.58;10.75;;;;;;;;;;5016248;28;20033;-65
2023/05/31 13:39:22;;;;;;;19.42;11.30;;;;;;;;;;5011809;28;20037;-66
2023/05/31 13:41:49;;;;;;;19.73;11.80;;;;;;;;;;5013745;28;20041;-65
2023/05/31 13:44:16;;;;;;;20.38;12.35;;;;;;;;;;5017785;28;20044;-65
2023/05/31 13:46:43;;;;;;;19.85;12.05;;;;;;;;;;5014208;28;20685;-66
2023/05/31 13:49:10;;;;;;;21.20;11.15;;;;;;;;;;5014181;28;20149;-65
2023/05/31 13:51:37;;;;;;;22.77;12.57;;;;;;;;;;5015150;28;20259;-65
2023/05/31 13:54:03;;;;;;;19.90;12.32;;;;;;;;;;5012242;28;20569;-65
2023/05/31 13:56:30;;;;;;;22.95;12.27;;;;;;;;;;5014931;28;20032;-66
2023/05/31 13:58:58;;;;;;;20.50;12.35;;;;;;;;;;5015138;28;20076;-65
2023/05/31 14:01:25;;;;;;;19.73;12.27;;;;;;;;;;5016014;28;20037;-66
2023/05/31 14:03:54;;;;;;;25.10;12.90;;;;;;;;;;5016461;28;20564;-65
2023/05/31 14:06:21;;;;;;;22.98;13.00;;;;;;;;;;5016452;28;20069;-66
2023/05/31 14:08:47;;;;;;;19.70;12.32;;;;;;;;;;5018772;28;20049;-66
2023/05/31 14:11:14;;;;;;;20.08;13.05;;;;;;;;;;5016684;28;20163;-66
2023/05/31 14:13:41;;;;;;;19.75;12.70;;;;;;;;;;5012721;28;20041;-65
2023/05/31 14:16:08;;;;;;;21.05;12.60;;;;;;;;;;5018457;28;20044;-67
2023/05/31 14:18:35;;;;;;;23.02;12.43;;;;;;;;;;5014708;28;20037;-66
2023/05/31 14:21:01;;;;;;;22.75;13.55;;;;;;;;;;5017230;28;20048;-66
2023/05/31 14:23:28;;;;;;;20.85;12.95;;;;;;;;;;5022945;28;20041;-66
2023/05/31 14:25:55;;;;;;;19.92;12.82;;;;;;;;;;5018194;28;20318;-66
2023/05/31 14:28:21;;;;;;;20.25;12.45;;;;;;;;;;5015736;28;20099;-66
2023/05/31 14:30:48;;;;;;;24.35;12.75;;;;;;;;;;5045503;28;20036;-67
2023/05/31 14:33:15;;;;;;;22.00;11.95;;;;;;;;;;5030844;28;20076;-65
2023/05/31 14:35:41;;;;;;;19.23;12.52;;;;;;;;;;5016067;28;20065;-65
2023/05/31 14:38:08;;;;;;;21.88;13.05;;;;;;;;;;5016730;28;20127;-67
2023/05/31 14:40:35;;;;;;;21.48;11.95;;;;;;;;;;5016277;28;20395;-67
2023/05/31 14:43:01;;;;;;;20.77;12.57;;;;;;;;;;5049241;28;20118;-67